Time;durP1;ratioP1;P1;durP2;ratioP2;P2;SDS_P1;SDS_P2;PMS_P1;PMS_P2;Temp;Humidity;BMP_temperature;BMP_pressure;BME280_temperature;BME280_humidity;BME280_pressure;Samples;Min_cycle;Max_cycle;Signal;HPM_P1;HPM_P2
2021/11/18 00:01:05;;;;;;;12.60;8.53;;;;;;;;;;5058532;28;20203;-90
2021/11/18 00:03:50;;;;;;;13.20;8.37;;;;;;;;;;5058166;28;20709;-89
2021/11/18 00:06:35;;;;;;;14.70;9.17;;;;;;;;;;5058235;28;20235;-91
2021/11/18 00:09:21;;;;;;;14.80;8.97;;;;;;;;;;5058387;28;20190;-90
2021/11/18 00:12:06;;;;;;;13.10;8.00;;;;;;;;;;5058734;28;20202;-91
2021/11/18 00:14:52;;;;;;;13.33;8.03;;;;;;;;;;5058729;28;20191;-91
2021/11/18 00:17:38;;;;;;;17.20;8.53;;;;;;;;;;5058006;28;20206;-91
2021/11/18 00:20:23;;;;;;;15.77;8.83;;;;;;;;;;5058328;28;20191;-91
2021/11/18 00:23:08;;;;;;;13.80;8.37;;;;;;;;;;5058021;28;20241;-92
2021/11/18 00:25:54;;;;;;;13.70;8.27;;;;;;;;;;5058026;28;20246;-91
2021/11/18 00:28:39;;;;;;;14.20;9.00;;;;;;;;;;5057523;28;20198;-92
2021/11/18 00:31:26;;;;;;;11.93;7.70;;;;;;;;;;5057954;28;20182;-92
2021/11/18 00:34:13;;;;;;;15.17;8.37;;;;;;;;;;5057636;28;20590;-91
2021/11/18 00:36:58;;;;;;;13.17;8.47;;;;;;;;;;5056635;28;20199;-90
2021/11/18 00:39:43;;;;;;;11.83;8.33;;;;;;;;;;5056810;28;20187;-92
2021/11/18 00:42:28;;;;;;;12.67;8.00;;;;;;;;;;5057610;28;20186;-91
2021/11/18 00:45:14;;;;;;;13.60;8.13;;;;;;;;;;5056982;28;20210;-91
2021/11/18 00:47:59;;;;;;;17.80;8.20;;;;;;;;;;5057173;28;20265;-91
2021/11/18 00:50:47;;;;;;;11.97;8.03;;;;;;;;;;5056764;28;20217;-92
2021/11/18 00:53:33;;;;;;;11.63;8.20;;;;;;;;;;5057207;28;20191;-91
2021/11/18 00:56:20;;;;;;;13.83;7.83;;;;;;;;;;5055761;28;20186;-90
2021/11/18 00:59:06;;;;;;;12.47;8.53;;;;;;;;;;5056289;28;20194;-91
2021/11/18 01:01:52;;;;;;;14.73;8.63;;;;;;;;;;5056681;28;20594;-92
2021/11/18 01:04:37;;;;;;;12.00;8.60;;;;;;;;;;5056714;28;20785;-91
2021/11/18 01:07:23;;;;;;;12.73;8.60;;;;;;;;;;5056980;28;20269;-92
2021/11/18 01:10:10;;;;;;;10.03;7.73;;;;;;;;;;5056559;28;20261;-91
2021/11/18 01:12:56;;;;;;;12.63;8.27;;;;;;;;;;5056509;28;20658;-91
2021/11/18 01:15:42;;;;;;;11.00;8.20;;;;;;;;;;5056123;28;20229;-91
2021/11/18 01:18:27;;;;;;;12.87;8.47;;;;;;;;;;5056299;28;20559;-91
2021/11/18 01:21:12;;;;;;;12.87;8.33;;;;;;;;;;5056045;28;20190;-91
2021/11/18 01:23:58;;;;;;;15.30;8.20;;;;;;;;;;5056125;28;20213;-91
2021/11/18 01:26:44;;;;;;;14.23;8.23;;;;;;;;;;5055582;28;20238;-91
2021/11/18 01:29:29;;;;;;;8.83;7.83;;;;;;;;;;5056115;28;20197;-92
2021/11/18 01:32:14;;;;;;;14.37;8.40;;;;;;;;;;5056169;28;20187;-91
2021/11/18 01:34:59;;;;;;;12.47;8.20;;;;;;;;;;5056061;28;20190;-91
2021/11/18 01:37:44;;;;;;;13.77;8.43;;;;;;;;;;5056379;28;20271;-92
2021/11/18 01:40:33;;;;;;;9.73;8.13;;;;;;;;;;5056423;28;20295;-91
2021/11/18 01:43:18;;;;;;;9.47;8.10;;;;;;;;;;5056792;28;20186;-90
2021/11/18 01:46:04;;;;;;;14.17;7.40;;;;;;;;;;5055512;28;20290;-91
2021/11/18 01:48:50;;;;;;;9.53;7.93;;;;;;;;;;5055966;28;20183;-92
2021/11/18 01:51:37;;;;;;;16.17;8.67;;;;;;;;;;5056179;28;20230;-92
2021/11/18 01:54:24;;;;;;;12.77;8.40;;;;;;;;;;5055995;28;20190;-91
2021/11/18 01:57:13;;;;;;;11.70;7.80;;;;;;;;;;5056006;28;20199;-91
2021/11/18 01:59:58;;;;;;;10.83;7.90;;;;;;;;;;5055886;28;20229;-90
2021/11/18 02:02:43;;;;;;;10.17;7.63;;;;;;;;;;5055566;28;20186;-90
2021/11/18 02:05:31;;;;;;;9.80;7.67;;;;;;;;;;5055260;28;20207;-91
2021/11/18 02:08:16;;;;;;;11.27;8.40;;;;;;;;;;5055500;28;20182;-90
2021/11/18 02:11:06;;;;;;;11.13;8.30;;;;;;;;;;5054816;28;20706;-90
2021/11/18 02:13:54;;;;;;;12.37;8.67;;;;;;;;;;5054822;28;20206;-90
2021/11/18 02:16:39;;;;;;;12.43;8.10;;;;;;;;;;5055905;28;20250;-92
2021/11/18 02:19:24;;;;;;;10.37;8.73;;;;;;;;;;5055744;28;20191;-90
2021/11/18 02:22:11;;;;;;;12.30;8.30;;;;;;;;;;5055695;28;20257;-91
2021/11/18 02:24:57;;;;;;;13.30;8.47;;;;;;;;;;5054941;28;20706;-91
2021/11/18 02:27:42;;;;;;;13.03;8.80;;;;;;;;;;5056030;28;20461;-90
2021/11/18 02:30:28;;;;;;;11.70;8.40;;;;;;;;;;5055964;28;20547;-91
2021/11/18 02:33:13;;;;;;;11.43;8.40;;;;;;;;;;5056400;28;20264;-92
2021/11/18 02:36:00;;;;;;;12.17;8.60;;;;;;;;;;5055722;28;20621;-92
2021/11/18 02:38:47;;;;;;;13.73;8.20;;;;;;;;;;5055637;28;20671;-91
2021/11/18 02:41:32;;;;;;;13.27;9.10;;;;;;;;;;5056094;28;20194;-91
2021/11/18 02:44:17;;;;;;;15.97;9.50;;;;;;;;;;5055509;28;20269;-92
2021/11/18 02:47:06;;;;;;;13.43;9.37;;;;;;;;;;5056008;28;20290;-90
2021/11/18 02:49:53;;;;;;;12.57;8.97;;;;;;;;;;5055346;28;20222;-91
2021/11/18 02:52:38;;;;;;;13.43;8.57;;;;;;;;;;5055405;28;20233;-92
2021/11/18 02:55:27;;;;;;;13.80;8.70;;;;;;;;;;5055353;28;20263;-89
2021/11/18 02:58:12;;;;;;;12.80;8.10;;;;;;;;;;5055695;28;20194;-91
2021/11/18 03:00:59;;;;;;;10.60;8.30;;;;;;;;;;5054926;28;20187;-90
2021/11/18 03:03:45;;;;;;;13.80;9.17;;;;;;;;;;5054107;28;20221;-90
2021/11/18 03:06:30;;;;;;;12.80;8.23;;;;;;;;;;5054382;28;20215;-91
2021/11/18 03:09:15;;;;;;;13.20;8.73;;;;;;;;;;5055775;28;20273;-91
2021/11/18 03:12:01;;;;;;;12.40;8.40;;;;;;;;;;5059086;28;20210;-92
2021/11/18 03:14:46;;;;;;;14.70;8.70;;;;;;;;;;5058397;28;20186;-90
2021/11/18 03:17:31;;;;;;;15.33;9.60;;;;;;;;;;5058049;28;20651;-92
2021/11/18 03:20:18;;;;;;;15.83;9.60;;;;;;;;;;5058042;28;20233;-91
2021/11/18 03:23:03;;;;;;;15.77;9.97;;;;;;;;;;5058376;28;20187;-90
2021/11/18 03:25:49;;;;;;;16.20;9.70;;;;;;;;;;5058434;28;20241;-91
2021/11/18 03:28:35;;;;;;;15.03;9.53;;;;;;;;;;5058878;28;20328;-91
2021/11/18 03:31:20;;;;;;;12.30;9.00;;;;;;;;;;5059132;28;20725;-91
2021/11/18 03:34:06;;;;;;;16.53;9.73;;;;;;;;;;5057770;28;20721;-91
2021/11/18 03:36:52;;;;;;;19.73;9.23;;;;;;;;;;5058340;28;20187;-92
2021/11/18 03:39:38;;;;;;;11.87;8.80;;;;;;;;;;5057787;28;20269;-89
2021/11/18 03:42:23;;;;;;;12.17;9.00;;;;;;;;;;5058107;28;20286;-91
2021/11/18 03:45:10;;;;;;;13.20;9.30;;;;;;;;;;5058168;28;20209;-92
2021/11/18 03:47:55;;;;;;;16.40;10.07;;;;;;;;;;5057876;28;20191;-91
2021/11/18 03:50:40;;;;;;;14.27;9.90;;;;;;;;;;5057762;28;20222;-91
2021/11/18 03:53:25;;;;;;;16.13;10.43;;;;;;;;;;5057642;28;20559;-92
2021/11/18 03:56:11;;;;;;;14.50;9.80;;;;;;;;;;5057616;28;20544;-91
2021/11/18 03:58:56;;;;;;;14.77;10.27;;;;;;;;;;5057275;28;20194;-90
2021/11/18 04:01:43;;;;;;;17.50;11.00;;;;;;;;;;5057286;28;20190;-90
2021/11/18 04:04:30;;;;;;;16.43;10.73;;;;;;;;;;5057080;28;20238;-90
2021/11/18 04:07:16;;;;;;;16.90;10.43;;;;;;;;;;5057304;28;20663;-91
2021/11/18 04:10:01;;;;;;;14.97;9.50;;;;;;;;;;5057298;28;20194;-91
2021/11/18 04:12:47;;;;;;;12.77;8.47;;;;;;;;;;5057351;28;20206;-91
2021/11/18 04:15:33;;;;;;;13.87;8.40;;;;;;;;;;5057219;28;20190;-92
2021/11/18 04:18:19;;;;;;;12.50;8.20;;;;;;;;;;5057210;28;20713;-90
2021/11/18 04:21:04;;;;;;;10.27;8.27;;;;;;;;;;5056024;28;20186;-90
2021/11/18 04:23:49;;;;;;;10.83;8.17;;;;;;;;;;5056293;28;20187;-89
2021/11/18 04:26:34;;;;;;;11.60;8.03;;;;;;;;;;5056291;28;20276;-90
2021/11/18 04:29:27;;;;;;;11.43;7.60;;;;;;;;;;5055886;28;20182;-92
2021/11/18 04:32:14;;;;;;;9.27;8.03;;;;;;;;;;5058541;28;20183;-89
2021/11/18 04:35:01;;;;;;;10.43;7.80;;;;;;;;;;5057013;28;20186;-90
2021/11/18 04:37:47;;;;;;;11.73;7.70;;;;;;;;;;5055581;28;20190;-90
2021/11/18 04:40:33;;;;;;;8.93;6.90;;;;;;;;;;5057968;28;20202;-93
2021/11/18 04:43:18;;;;;;;10.13;7.63;;;;;;;;;;5057441;28;20198;-89
2021/11/18 04:46:03;;;;;;;10.43;7.17;;;;;;;;;;5054853;28;20338;-89
2021/11/18 04:48:49;;;;;;;10.30;7.60;;;;;;;;;;5056393;28;20187;-90
2021/11/18 04:51:35;;;;;;;9.63;7.60;;;;;;;;;;5057147;28;20226;-90
2021/11/18 04:54:20;;;;;;;10.20;7.07;;;;;;;;;;5053983;28;20191;-89
2021/11/18 04:57:06;;;;;;;8.03;7.23;;;;;;;;;;5055141;28;20198;-89
2021/11/18 04:59:51;;;;;;;8.80;6.57;;;;;;;;;;5056794;28;20218;-89
2021/11/18 05:02:36;;;;;;;9.10;6.63;;;;;;;;;;5055892;28;20193;-89
2021/11/18 05:05:22;;;;;;;7.50;6.70;;;;;;;;;;5055766;28;20214;-87
2021/11/18 05:08:09;;;;;;;9.37;6.40;;;;;;;;;;5055022;28;20210;-88
2021/11/18 05:10:54;;;;;;;6.83;6.17;;;;;;;;;;5054705;28;20194;-87
2021/11/18 05:13:39;;;;;;;7.00;6.20;;;;;;;;;;5053377;28;20201;-88
2021/11/18 05:16:25;;;;;;;9.17;7.10;;;;;;;;;;5053977;28;20289;-90
2021/11/18 05:19:10;;;;;;;8.23;6.87;;;;;;;;;;5052767;28;20190;-89
2021/11/18 05:21:55;;;;;;;8.10;6.40;;;;;;;;;;5054807;28;20194;-91
2021/11/18 05:24:41;;;;;;;8.90;6.77;;;;;;;;;;5053278;28;20309;-90
2021/11/18 05:27:26;;;;;;;8.73;6.57;;;;;;;;;;5055922;28;20257;-90
2021/11/18 05:30:12;;;;;;;9.13;7.00;;;;;;;;;;5054598;28;20710;-90
2021/11/18 05:32:58;;;;;;;8.17;6.40;;;;;;;;;;5053641;28;20186;-89
2021/11/18 05:35:44;;;;;;;9.30;7.37;;;;;;;;;;5053255;28;20652;-86
2021/11/18 05:38:30;;;;;;;10.20;6.77;;;;;;;;;;5053335;28;20178;-89
2021/11/18 05:41:17;;;;;;;12.07;7.50;;;;;;;;;;5053639;28;20325;-88
2021/11/18 05:44:03;;;;;;;11.67;7.50;;;;;;;;;;5053141;28;20743;-90
2021/11/18 05:46:49;;;;;;;8.77;6.83;;;;;;;;;;5052452;28;20722;-87
2021/11/18 05:49:34;;;;;;;7.67;6.37;;;;;;;;;;5052676;28;20234;-89
2021/11/18 05:52:19;;;;;;;9.60;7.13;;;;;;;;;;5052464;28;20186;-87
2021/11/18 05:55:05;;;;;;;11.43;7.37;;;;;;;;;;5052432;28;20198;-89
2021/11/18 05:57:51;;;;;;;7.90;6.93;;;;;;;;;;5052296;28;20191;-85
2021/11/18 06:00:36;;;;;;;7.87;7.00;;;;;;;;;;5051254;28;20186;-85
2021/11/18 06:03:21;;;;;;;10.17;7.23;;;;;;;;;;5051261;28;20242;-83
2021/11/18 06:06:08;;;;;;;9.40;6.43;;;;;;;;;;5051300;28;20183;-84
2021/11/18 06:08:53;;;;;;;10.17;7.27;;;;;;;;;;5050824;28;20549;-85
2021/11/18 06:11:40;;;;;;;8.77;7.23;;;;;;;;;;5050388;28;20195;-85
2021/11/18 06:14:26;;;;;;;8.50;7.40;;;;;;;;;;5050768;28;20194;-85
2021/11/18 06:17:12;;;;;;;9.33;7.43;;;;;;;;;;5050849;28;20187;-85
2021/11/18 06:19:56;;;;;;;13.47;7.20;;;;;;;;;;5050579;28;20198;-85
2021/11/18 06:22:42;;;;;;;11.63;7.23;;;;;;;;;;5050589;28;20190;-84
2021/11/18 06:25:29;;;;;;;8.93;7.90;;;;;;;;;;5050647;28;20238;-84
2021/11/18 06:28:14;;;;;;;8.27;7.23;;;;;;;;;;5051576;28;20210;-85
2021/11/18 06:31:05;;;;;;;10.23;7.20;;;;;;;;;;5051261;28;20206;-85
2021/11/18 06:33:50;;;;;;;10.17;7.83;;;;;;;;;;5051693;28;20559;-85
2021/11/18 06:36:35;;;;;;;9.13;7.90;;;;;;;;;;5051628;28;20187;-87
2021/11/18 06:39:22;;;;;;;9.43;7.57;;;;;;;;;;5053393;28;20182;-87
2021/11/18 06:42:09;;;;;;;11.53;7.73;;;;;;;;;;5052932;28;20261;-87
2021/11/18 06:44:54;;;;;;;9.10;6.83;;;;;;;;;;5054994;28;20662;-87
2021/11/18 06:47:40;;;;;;;9.43;6.97;;;;;;;;;;5057045;28;20210;-87
2021/11/18 06:50:25;;;;;;;10.83;7.70;;;;;;;;;;5057494;28;20269;-89
2021/11/18 06:53:11;;;;;;;11.07;7.87;;;;;;;;;;5058156;28;20226;-88
2021/11/18 06:55:56;;;;;;;11.70;7.23;;;;;;;;;;5056564;28;20191;-88
2021/11/18 06:58:41;;;;;;;22.57;7.57;;;;;;;;;;5056167;28;20213;-87
2021/11/18 07:01:26;;;;;;;10.53;7.13;;;;;;;;;;5056054;28;20554;-87
2021/11/18 07:04:13;;;;;;;13.27;7.60;;;;;;;;;;5055731;28;20646;-87
2021/11/18 07:06:57;;;;;;;11.63;8.20;;;;;;;;;;5055522;28;20647;-87
2021/11/18 07:09:43;;;;;;;10.00;7.80;;;;;;;;;;5055892;28;20345;-86
2021/11/18 07:12:29;;;;;;;8.90;8.07;;;;;;;;;;5055817;28;20211;-88
2021/11/18 07:15:14;;;;;;;11.27;8.30;;;;;;;;;;5056082;28;20572;-86
2021/11/18 07:18:00;;;;;;;14.00;8.60;;;;;;;;;;5056202;28;20187;-87
2021/11/18 07:20:46;;;;;;;11.80;9.07;;;;;;;;;;5055605;28;20206;-86
2021/11/18 07:23:32;;;;;;;11.90;8.90;;;;;;;;;;5055166;28;20766;-86
2021/11/18 07:26:17;;;;;;;13.50;8.33;;;;;;;;;;5054813;28;20312;-86
2021/11/18 07:29:02;;;;;;;11.93;7.87;;;;;;;;;;5055311;28;20360;-87
2021/11/18 07:31:47;;;;;;;10.73;8.43;;;;;;;;;;5054894;28;20187;-87
2021/11/18 07:34:32;;;;;;;9.00;7.83;;;;;;;;;;5055224;28;20667;-86
2021/11/18 07:37:18;;;;;;;12.33;7.67;;;;;;;;;;5054594;28;20186;-87
2021/11/18 07:40:04;;;;;;;11.37;8.33;;;;;;;;;;5054959;28;20266;-87
2021/11/18 07:42:50;;;;;;;10.13;7.97;;;;;;;;;;5054867;28;20179;-87
2021/11/18 07:45:35;;;;;;;11.83;8.50;;;;;;;;;;5054477;28;20695;-86
2021/11/18 07:48:20;;;;;;;12.47;8.27;;;;;;;;;;5054307;28;20253;-86
2021/11/18 07:51:06;;;;;;;14.37;8.87;;;;;;;;;;5054339;28;20584;-87
2021/11/18 07:53:53;;;;;;;13.90;9.13;;;;;;;;;;5054605;28;20266;-87
2021/11/18 07:56:39;;;;;;;14.27;8.70;;;;;;;;;;5053155;28;20317;-87
2021/11/18 07:59:25;;;;;;;14.67;8.87;;;;;;;;;;5054592;28;20188;-87
2021/11/18 08:02:10;;;;;;;11.73;8.43;;;;;;;;;;5053717;28;20273;-87
2021/11/18 08:04:56;;;;;;;15.57;9.90;;;;;;;;;;5054260;28;20672;-86
2021/11/18 08:07:41;;;;;;;17.43;9.83;;;;;;;;;;5053939;28;20694;-87
2021/11/18 08:10:28;;;;;;;13.27;9.40;;;;;;;;;;5054045;28;20182;-87
2021/11/18 08:13:13;;;;;;;13.03;9.90;;;;;;;;;;5054100;28;20631;-87
2021/11/18 08:15:58;;;;;;;15.40;10.13;;;;;;;;;;5053067;28;20256;-87
2021/11/18 08:18:43;;;;;;;14.57;10.13;;;;;;;;;;5053975;28;20202;-87
2021/11/18 08:21:28;;;;;;;14.47;9.60;;;;;;;;;;5053878;28;20182;-87
2021/11/18 08:24:14;;;;;;;16.50;9.97;;;;;;;;;;5053476;28;20272;-87
2021/11/18 08:27:02;;;;;;;14.03;9.83;;;;;;;;;;5052826;28;20650;-86
2021/11/18 08:29:47;;;;;;;14.87;10.37;;;;;;;;;;5053389;28;20579;-86
2021/11/18 08:32:33;;;;;;;16.00;10.53;;;;;;;;;;5053268;28;20322;-86
2021/11/18 08:35:18;;;;;;;13.43;10.43;;;;;;;;;;5053407;28;20238;-85
2021/11/18 08:38:05;;;;;;;15.83;11.43;;;;;;;;;;5053387;28;20273;-86
2021/11/18 08:40:51;;;;;;;15.33;11.30;;;;;;;;;;5052832;28;20194;-87
2021/11/18 08:43:40;;;;;;;18.30;11.53;;;;;;;;;;5053065;28;20190;-87
2021/11/18 08:46:25;;;;;;;17.90;10.43;;;;;;;;;;5053066;28;20191;-86
2021/11/18 08:49:10;;;;;;;15.33;11.13;;;;;;;;;;5052993;28;20300;-86
2021/11/18 08:51:56;;;;;;;17.07;11.03;;;;;;;;;;5053337;28;20670;-86
2021/11/18 08:54:43;;;;;;;14.77;11.23;;;;;;;;;;5053212;28;20706;-87
2021/11/18 08:57:28;;;;;;;20.00;11.33;;;;;;;;;;5052887;28;20182;-87
2021/11/18 09:00:20;;;;;;;18.80;11.50;;;;;;;;;;5052854;28;20187;-86
2021/11/18 09:03:06;;;;;;;19.53;11.47;;;;;;;;;;5052587;28;20206;-86
2021/11/18 09:05:52;;;;;;;17.37;11.30;;;;;;;;;;5052634;28;20541;-87
2021/11/18 09:08:38;;;;;;;17.40;11.33;;;;;;;;;;5052864;28;20368;-87
2021/11/18 09:11:25;;;;;;;19.97;11.47;;;;;;;;;;5052578;28;20195;-87
2021/11/18 09:14:11;;;;;;;16.17;11.10;;;;;;;;;;5052532;28;20178;-86
2021/11/18 09:16:57;;;;;;;18.30;11.13;;;;;;;;;;5052201;28;20728;-87
2021/11/18 09:19:43;;;;;;;14.90;11.17;;;;;;;;;;5052666;28;20186;-87
2021/11/18 09:22:29;;;;;;;17.30;11.03;;;;;;;;;;5052743;28;20675;-87
2021/11/18 09:25:15;;;;;;;15.47;11.57;;;;;;;;;;5052139;28;20878;-87
2021/11/18 09:28:01;;;;;;;16.83;10.60;;;;;;;;;;5052439;28;20233;-86
2021/11/18 09:30:48;;;;;;;19.43;12.00;;;;;;;;;;5052372;28;20264;-87
2021/11/18 09:33:34;;;;;;;17.63;11.30;;;;;;;;;;5052137;28;20194;-86
2021/11/18 09:36:20;;;;;;;18.33;11.53;;;;;;;;;;5052374;28;20222;-87
2021/11/18 09:39:07;;;;;;;15.07;11.07;;;;;;;;;;5052222;28;20186;-86
2021/11/18 09:41:58;;;;;;;17.40;10.60;;;;;;;;;;5052437;28;20233;-86
2021/11/18 09:44:51;;;;;;;16.53;11.13;;;;;;;;;;5052262;28;20693;-87
2021/11/18 09:47:58;;;;;;;16.63;11.20;;;;;;;;;;5052089;28;20614;-87
2021/11/18 09:50:48;;;;;;;16.40;12.00;;;;;;;;;;5051934;28;20625;-87
2021/11/18 09:53:45;;;;;;;15.77;11.40;;;;;;;;;;5052269;28;20194;-88
2021/11/18 09:56:32;;;;;;;24.70;11.83;;;;;;;;;;5052495;28;20193;-87
2021/11/18 09:59:23;;;;;;;16.43;11.77;;;;;;;;;;5052465;28;20707;-87
2021/11/18 10:02:23;;;;;;;17.83;11.43;;;;;;;;;;5052443;28;20690;-87
2021/11/18 10:05:11;;;;;;;14.43;10.50;;;;;;;;;;5052227;28;20694;-86
2021/11/18 10:07:59;;;;;;;17.20;11.17;;;;;;;;;;5052359;28;20190;-87
2021/11/18 10:10:46;;;;;;;20.37;10.63;;;;;;;;;;5052240;28;20194;-87
2021/11/18 10:13:42;;;;;;;16.30;11.00;;;;;;;;;;5052371;28;20761;-87
2021/11/18 10:16:29;;;;;;;15.87;11.13;;;;;;;;;;5052272;28;20298;-87
2021/11/18 10:19:15;;;;;;;21.70;11.67;;;;;;;;;;5053513;28;20184;-86
2021/11/18 10:22:00;;;;;;;15.13;10.60;;;;;;;;;;5056160;28;20229;-86
2021/11/18 10:24:48;;;;;;;15.83;10.47;;;;;;;;;;5055426;28;20191;-87
2021/11/18 10:27:35;;;;;;;14.53;10.73;;;;;;;;;;5056138;28;20533;-87
2021/11/18 10:30:22;;;;;;;17.80;11.30;;;;;;;;;;5055616;28;20231;-86
2021/11/18 10:33:09;;;;;;;13.20;10.40;;;;;;;;;;5056069;28;20194;-87
2021/11/18 10:36:08;;;;;;;16.30;11.20;;;;;;;;;;5055605;28;20233;-86
2021/11/18 10:38:57;;;;;;;13.77;10.63;;;;;;;;;;5056009;28;20253;-87
2021/11/18 10:41:50;;;;;;;14.47;10.27;;;;;;;;;;5056352;28;20229;-87
2021/11/18 10:44:44;;;;;;;16.27;10.47;;;;;;;;;;5055449;28;20253;-87
2021/11/18 10:47:31;;;;;;;16.20;10.70;;;;;;;;;;5055772;28;20198;-87
2021/11/18 10:50:27;;;;;;;12.40;9.53;;;;;;;;;;5054707;28;20226;-85
2021/11/18 10:53:16;;;;;;;13.53;9.93;;;;;;;;;;5055108;28;20233;-83
2021/11/18 10:56:05;;;;;;;14.93;9.97;;;;;;;;;;5055205;28;20270;-87
2021/11/18 10:59:04;;;;;;;17.13;10.57;;;;;;;;;;5056053;28;20564;-87
2021/11/18 11:01:50;;;;;;;11.87;9.30;;;;;;;;;;5056326;28;20195;-88
2021/11/18 11:04:36;;;;;;;14.80;9.40;;;;;;;;;;5054856;28;20305;-86
2021/11/18 11:07:31;;;;;;;14.77;9.83;;;;;;;;;;5055528;28;20662;-86
2021/11/18 11:10:18;;;;;;;13.43;9.10;;;;;;;;;;5055180;28;20312;-86
2021/11/18 11:13:07;;;;;;;13.80;10.37;;;;;;;;;;5055374;28;20214;-87
2021/11/18 11:16:03;;;;;;;15.67;10.00;;;;;;;;;;5055286;28;20191;-89
2021/11/18 11:18:53;;;;;;;13.03;9.57;;;;;;;;;;5056607;28;20551;-88
2021/11/18 11:21:45;;;;;;;12.83;9.43;;;;;;;;;;5055902;28;20182;-87
2021/11/18 11:24:48;;;;;;;15.07;9.77;;;;;;;;;;5056540;28;20561;-88
2021/11/18 11:27:52;;;;;;;15.93;10.33;;;;;;;;;;5056685;28;20178;-85
2021/11/18 11:30:42;;;;;;;14.50;10.10;;;;;;;;;;5054031;28;20577;-85
2021/11/18 11:33:31;;;;;;;16.27;10.50;;;;;;;;;;5054835;28;20279;-87
2021/11/18 11:36:19;;;;;;;11.30;9.40;;;;;;;;;;5054282;28;20194;-85
2021/11/18 11:39:14;;;;;;;13.27;9.33;;;;;;;;;;5054226;28;20555;-85
2021/11/18 11:42:13;;;;;;;15.57;9.33;;;;;;;;;;5054522;28;20208;-85
2021/11/18 11:45:06;;;;;;;13.03;9.77;;;;;;;;;;5054369;28;20187;-85
2021/11/18 11:48:06;;;;;;;15.03;9.13;;;;;;;;;;5054274;28;20257;-85
2021/11/18 11:51:08;;;;;;;11.00;8.87;;;;;;;;;;5028639;28;20254;-85
2021/11/18 11:54:00;;;;;;;13.27;8.77;;;;;;;;;;5054404;28;20317;-85
2021/11/18 11:56:46;;;;;;;13.90;9.03;;;;;;;;;;5054617;28;20187;-86
2021/11/18 11:59:33;;;;;;;13.33;9.30;;;;;;;;;;5055632;28;20191;-88
2021/11/18 12:02:23;;;;;;;13.57;9.80;;;;;;;;;;5055492;28;20280;-87
2021/11/18 12:05:11;;;;;;;17.60;9.80;;;;;;;;;;5055383;28;20186;-89
2021/11/18 12:08:01;;;;;;;18.30;9.30;;;;;;;;;;5054384;28;20265;-87
2021/11/18 12:10:49;;;;;;;13.90;9.40;;;;;;;;;;5055063;28;20702;-84
2021/11/18 12:13:39;;;;;;;15.67;9.70;;;;;;;;;;5055156;28;20233;-88
2021/11/18 12:16:27;;;;;;;13.23;8.50;;;;;;;;;;5055527;28;20592;-87
2021/11/18 12:19:17;;;;;;;12.70;8.70;;;;;;;;;;5055325;28;20206;-86
2021/11/18 12:22:23;;;;;;;13.43;8.87;;;;;;;;;;5055804;28;20191;-89
2021/11/18 12:25:29;;;;;;;11.50;8.43;;;;;;;;;;5056382;28;20589;-89
2021/11/18 12:28:20;;;;;;;14.70;8.93;;;;;;;;;;5055789;28;20261;-89
2021/11/18 12:31:21;;;;;;;14.47;9.00;;;;;;;;;;5056511;28;20293;-88
2021/11/18 12:34:11;;;;;;;14.97;9.47;;;;;;;;;;5054277;28;20260;-88
2021/11/18 12:37:07;;;;;;;16.37;9.47;;;;;;;;;;5054735;28;20194;-88
2021/11/18 12:40:01;;;;;;;14.53;9.63;;;;;;;;;;5055403;28;20186;-89
2021/11/18 12:43:00;;;;;;;12.73;9.70;;;;;;;;;;5055059;28;20237;-89
2021/11/18 12:45:48;;;;;;;15.73;9.63;;;;;;;;;;5055653;28;20596;-88
2021/11/18 12:48:48;;;;;;;18.07;10.27;;;;;;;;;;5056550;28;20179;-88
2021/11/18 12:51:47;;;;;;;11.67;9.47;;;;;;;;;;5056989;28;20214;-88
2021/11/18 12:54:35;;;;;;;15.77;9.20;;;;;;;;;;5056260;28;20209;-89
2021/11/18 12:57:29;;;;;;;14.60;9.67;;;;;;;;;;5057662;28;20195;-88
2021/11/18 13:00:29;;;;;;;13.37;10.20;;;;;;;;;;5055199;28;20186;-90
2021/11/18 13:03:16;;;;;;;16.53;10.10;;;;;;;;;;5055373;28;20205;-87
2021/11/18 13:06:02;;;;;;;16.67;10.50;;;;;;;;;;5055113;28;20187;-87
2021/11/18 13:08:52;;;;;;;14.27;9.43;;;;;;;;;;5056384;28;20190;-88
2021/11/18 13:11:45;;;;;;;17.77;9.70;;;;;;;;;;5053195;28;20186;-86
2021/11/18 13:14:32;;;;;;;13.83;9.17;;;;;;;;;;5052729;28;20256;-87
2021/11/18 13:17:30;;;;;;;12.93;8.90;;;;;;;;;;5053084;28;20748;-86
2021/11/18 13:20:33;;;;;;;10.17;8.00;;;;;;;;;;5053159;28;20182;-86
2021/11/18 13:23:29;;;;;;;11.13;8.23;;;;;;;;;;5052871;28;20282;-85
2021/11/18 13:26:18;;;;;;;12.63;7.80;;;;;;;;;;5052732;28;20230;-86
2021/11/18 13:29:09;;;;;;;11.10;7.70;;;;;;;;;;5052619;28;20276;-87
2021/11/18 13:32:05;;;;;;;10.20;7.87;;;;;;;;;;5053125;28;20270;-87
2021/11/18 13:34:55;;;;;;;13.93;7.87;;;;;;;;;;5052218;28;20190;-83
2021/11/18 13:37:41;;;;;;;13.73;7.83;;;;;;;;;;5051773;28;20310;-84
2021/11/18 13:40:29;;;;;;;8.70;6.77;;;;;;;;;;5051793;28;20183;-84
2021/11/18 13:43:16;;;;;;;10.50;6.83;;;;;;;;;;5051642;28;20190;-83
2021/11/18 13:46:06;;;;;;;10.90;6.80;;;;;;;;;;5051493;28;20186;-84
2021/11/18 13:48:52;;;;;;;10.27;6.90;;;;;;;;;;5051348;28;20810;-84
2021/11/18 13:51:44;;;;;;;12.30;6.80;;;;;;;;;;5051802;28;20226;-84
2021/11/18 13:54:31;;;;;;;12.67;6.53;;;;;;;;;;5050652;28;20196;-85
2021/11/18 13:57:19;;;;;;;11.93;6.93;;;;;;;;;;5051951;28;20190;-85
2021/11/18 14:00:08;;;;;;;7.30;5.90;;;;;;;;;;5051899;28;20654;-85
2021/11/18 14:02:57;;;;;;;10.87;6.77;;;;;;;;;;5051666;28;20190;-85
2021/11/18 14:05:43;;;;;;;9.40;6.97;;;;;;;;;;5051601;28;20687;-85
2021/11/18 14:08:29;;;;;;;10.67;6.80;;;;;;;;;;5051427;28;20241;-85
2021/11/18 14:11:16;;;;;;;15.40;9.60;;;;;;;;;;5051379;28;20214;-84
2021/11/18 14:14:21;;;;;;;14.37;7.60;;;;;;;;;;5051275;28;20193;-85
2021/11/18 14:17:14;;;;;;;10.83;6.27;;;;;;;;;;5051803;28;20658;-85
2021/11/18 14:20:11;;;;;;;9.10;6.33;;;;;;;;;;5051886;28;20675;-84
2021/11/18 14:23:09;;;;;;;10.67;6.17;;;;;;;;;;5051650;28;20187;-85
2021/11/18 14:26:11;;;;;;;10.00;6.90;;;;;;;;;;5051363;28;20234;-85
2021/11/18 14:29:16;;;;;;;11.07;6.70;;;;;;;;;;5051359;28;20268;-86
2021/11/18 14:32:14;;;;;;;6.73;6.03;;;;;;;;;;5051467;28;20228;-85
2021/11/18 14:35:01;;;;;;;9.13;6.40;;;;;;;;;;5051474;28;20207;-86
2021/11/18 14:37:51;;;;;;;12.77;6.60;;;;;;;;;;5051738;28;20190;-86
2021/11/18 14:40:40;;;;;;;10.50;5.67;;;;;;;;;;5051475;28;20186;-83
2021/11/18 14:43:27;;;;;;;11.03;6.00;;;;;;;;;;5051942;28;20190;-88
2021/11/18 14:46:18;;;;;;;9.57;6.10;;;;;;;;;;5052564;28;20195;-91
2021/11/18 14:49:22;;;;;;;10.40;6.57;;;;;;;;;;5056609;28;20187;-90
2021/11/18 14:52:14;;;;;;;13.83;6.60;;;;;;;;;;5058936;28;20211;-88
2021/11/18 14:55:11;;;;;;;8.37;6.43;;;;;;;;;;5054649;28;20555;-91
2021/11/18 14:57:58;;;;;;;6.67;5.70;;;;;;;;;;5058055;28;20267;-89
2021/11/18 15:00:46;;;;;;;14.43;7.23;;;;;;;;;;5055517;28;20246;-88
2021/11/18 15:03:43;;;;;;;9.27;6.20;;;;;;;;;;5054177;28;20272;-85
2021/11/18 15:06:31;;;;;;;10.20;6.43;;;;;;;;;;5061113;28;20190;-92
2021/11/18 15:09:17;;;;;;;9.33;5.87;;;;;;;;;;5063180;28;20191;-93
2021/11/18 15:12:06;;;;;;;11.50;6.60;;;;;;;;;;5062453;28;20249;-92
2021/11/18 15:14:52;;;;;;;10.47;6.10;;;;;;;;;;5062757;28;20206;-91
2021/11/18 15:17:37;;;;;;;12.77;7.37;;;;;;;;;;5061433;28;20511;-92
2021/11/18 15:20:23;;;;;;;8.03;5.97;;;;;;;;;;5064474;28;20179;-94
2021/11/18 15:23:10;;;;;;;10.67;6.33;;;;;;;;;;5061856;28;20275;-89
2021/11/18 15:25:55;;;;;;;13.00;6.87;;;;;;;;;;5056288;28;20373;-86
2021/11/18 15:28:41;;;;;;;9.17;6.27;;;;;;;;;;5056034;28;20190;-83
2021/11/18 15:31:26;;;;;;;8.97;6.37;;;;;;;;;;5054301;28;20296;-82
2021/11/18 15:34:12;;;;;;;9.93;5.60;;;;;;;;;;5055904;28;20187;-88
2021/11/18 15:36:57;;;;;;;13.03;7.60;;;;;;;;;;5054508;28;20709;-86
2021/11/18 15:39:43;;;;;;;9.90;6.70;;;;;;;;;;5055332;28;20190;-87
2021/11/18 15:42:28;;;;;;;15.43;9.23;;;;;;;;;;5055325;28;20329;-86
2021/11/18 15:45:15;;;;;;;12.37;8.07;;;;;;;;;;5055406;28;20187;-86
2021/11/18 15:48:00;;;;;;;13.50;9.83;;;;;;;;;;5054913;28;20561;-88
2021/11/18 15:50:47;;;;;;;14.50;9.33;;;;;;;;;;5055311;28;20222;-84
2021/11/18 15:53:33;;;;;;;15.00;8.87;;;;;;;;;;5053428;28;20666;-84
2021/11/18 15:56:21;;;;;;;11.97;7.90;;;;;;;;;;5053765;28;20190;-84
2021/11/18 15:59:07;;;;;;;14.90;7.90;;;;;;;;;;5054166;28;20698;-84
2021/11/18 16:01:54;;;;;;;11.57;7.78;;;;;;;;;;5053801;28;20756;-86
2021/11/18 16:04:40;;;;;;;12.45;8.18;;;;;;;;;;5054262;28;20711;-90
2021/11/18 16:07:26;;;;;;;13.83;7.60;;;;;;;;;;5073682;28;20267;-87
2021/11/18 16:10:11;;;;;;;12.10;7.40;;;;;;;;;;5073692;28;20183;-84
2021/11/18 16:12:59;;;;;;;9.67;7.17;;;;;;;;;;5073480;28;20197;-87
2021/11/18 16:15:51;;;;;;;14.23;7.30;;;;;;;;;;5074235;28;20546;-85
2021/11/18 16:18:37;;;;;;;12.40;7.07;;;;;;;;;;5072774;28;20597;-84
2021/11/18 16:21:23;;;;;;;13.77;7.17;;;;;;;;;;5071759;28;20177;-81
2021/11/18 16:24:09;;;;;;;10.23;6.80;;;;;;;;;;5053252;28;20237;-84
2021/11/18 16:26:55;;;;;;;9.80;7.10;;;;;;;;;;5052724;28;20238;-83
2021/11/18 16:29:41;;;;;;;9.00;6.83;;;;;;;;;;5052846;28;20182;-82